Pleiades — WDG9301 — position and weather

sailwx.info

Track history (hours):
 
Tides and Currents Weather Stations Pressure Air Temp Water Temp Dewpoint Dewpoint Depression Visibility Wind Speed Wind Dir Waves Ship Positions

Pleiades

Owner: Ashmore, Michael L, Alameda, CA. More information available from US FCC via Universal Licensing System and Coast Guard Vessel Documentation Center.

Last reported at 2018-Jan-01 23:24 UTC. Time now 2018-Feb-25 08:03 UTC.
Position N 37°47' W 122°15'.
Warning: this ship's position is 54 days out of date.

Length 12 m.

Type: Sailing vessel. MMSI: 367586420.

Date/timePositionNaut miles runAvg speedWind from/ knotsBaromVisibWave heightAir tempDewpointWater temp
2018-Jan-01 23:24N 37°47' W 122°15'0 1.0
2018-Jan-01 22:58N 37°47' W 122°16'0 0.0
2018-Jan-01 22:29N 37°47' W 122°16'0 0.0
2018-Jan-01 21:58N 37°47' W 122°16'2 3.3
2018-Jan-01 21:30N 37°48' W 122°18'2 4.0
2018-Jan-01 21:00N 37°47' W 122°20'2 4.6
2018-Jan-01 20:28N 37°46' W 122°17'0 0.0
2018-Jan-01 19:58N 37°46' W 122°17'1 1.8
2018-Jan-01 19:30N 37°45' W 122°16'2 3.3
2018-Jan-01 18:56N 37°45' W 122°14'0 0.0
2018-Jan-01 18:20N 37°45' W 122°14'1 2.9
2018-Jan-01 17:58N 37°46' W 122°14'2 3.4
2018-Jan-01 17:30N 37°47' W 122°15'  
Track history (hours):
 
Tides and Currents Weather Stations Pressure Air Temp Water Temp Dewpoint Dewpoint Depression Visibility Wind Speed Wind Dir Waves Ship Positions

Pleiades

Owner: Ashmore, Michael L, Alameda, CA. More information available from US FCC via Universal Licensing System and Coast Guard Vessel Documentation Center.

Last reported at 2018-Jan-01 23:24 UTC. Time now 2018-Feb-25 08:03 UTC.
Position N 37°47' W 122°15'.
Warning: this ship's position is 54 days out of date.

Length 12 m.

Type: Sailing vessel. MMSI: 367586420.

Date/timePositionNaut miles runAvg speedWind from/ knotsBaromVisibWave heightAir tempDewpointWater temp
2018-Jan-01 23:24N 37°47' W 122°15'0 1.0
2018-Jan-01 22:58N 37°47' W 122°16'0 0.0
2018-Jan-01 22:29N 37°47' W 122°16'0 0.0
2018-Jan-01 21:58N 37°47' W 122°16'2 3.3
2018-Jan-01 21:30N 37°48' W 122°18'2 4.0
2018-Jan-01 21:00N 37°47' W 122°20'2 4.6
2018-Jan-01 20:28N 37°46' W 122°17'0 0.0
2018-Jan-01 19:58N 37°46' W 122°17'1 1.8
2018-Jan-01 19:30N 37°45' W 122°16'2 3.3
2018-Jan-01 18:56N 37°45' W 122°14'0 0.0
2018-Jan-01 18:20N 37°45' W 122°14'1 2.9
2018-Jan-01 17:58N 37°46' W 122°14'2 3.4
2018-Jan-01 17:30N 37°47' W 122°15'  

Dump ship's entire track history